Time;durP1;ratioP1;P1;durP2;ratioP2;P2;SDS_P1;SDS_P2;PMS_P1;PMS_P2;Temp;Humidity;BMP_temperature;BMP_pressure;BME280_temperature;BME280_humidity;BME280_pressure;Samples;Min_cycle;Max_cycle;Signal;HPM_P1;HPM_P2
2023/03/04 00:08:52;;;;;;;1.80;0.68;;;6.50;1.00;;;;;;26156047;22;20538;-43
2023/03/04 00:18:55;;;;;;;9.68;1.67;;;6.40;1.00;;;;;;26155605;22;20023;-43
2023/03/04 00:28:56;;;;;;;2.75;1.25;;;6.40;1.00;;;;;;26158953;22;20026;-42
2023/03/04 00:38:57;;;;;;;3.80;1.40;;;6.50;1.00;;;;;;26152560;22;20025;-43
2023/03/04 00:48:58;;;;;;;2.22;1.23;;;6.40;1.00;;;;;;26145234;22;20015;-43
2023/03/04 00:58:59;;;;;;;1.80;0.47;;;6.40;1.00;;;;;;26156708;22;20527;-43
2023/03/04 01:09:00;;;;;;;2.67;1.00;;;6.40;1.00;;;;;;26163065;22;20443;-43
2023/03/04 01:19:02;;;;;;;4.07;0.60;;;6.40;1.00;;;;;;26158476;22;20030;-43
2023/03/04 01:29:03;;;;;;;2.92;0.88;;;6.30;1.00;;;;;;26164243;22;20440;-43
2023/03/04 01:39:04;;;;;;;3.30;0.73;;;6.30;1.00;;;;;;26155537;22;20022;-43
2023/03/04 01:49:05;;;;;;;4.50;0.88;;;6.40;1.00;;;;;;26154093;22;20013;-43
2023/03/04 01:59:17;;;;;;;2.92;0.93;;;6.30;1.00;;;;;;26158830;22;20022;-43
2023/03/04 02:09:19;;;;;;;2.17;0.90;;;6.40;1.00;;;;;;26145717;22;20010;-43
2023/03/04 02:19:41;;;;;;;2.35;0.65;;;6.50;1.00;;;;;;26142324;22;20779;-43
2023/03/04 02:29:42;;;;;;;3.58;0.98;;;6.40;1.00;;;;;;26150570;22;20093;-43
2023/03/04 02:39:46;;;;;;;4.88;1.50;;;6.30;1.00;;;;;;26138937;22;20459;-42
2023/03/04 02:49:47;;;;;;;1.83;0.90;;;6.30;1.00;;;;;;26139125;22;20025;-43
2023/03/04 02:59:48;;;;;;;8.52;0.98;;;6.30;1.00;;;;;;26145515;22;20007;-43
2023/03/04 03:09:49;;;;;;;1.15;0.43;;;6.20;1.00;;;;;;26150523;22;20425;-43
2023/03/04 03:19:50;;;;;;;2.25;0.57;;;6.20;1.00;;;;;;26140026;22;20629;-43
2023/03/04 03:29:51;;;;;;;5.95;1.60;;;6.20;1.00;;;;;;26139525;22;20089;-43
2023/03/04 03:39:52;;;;;;;1.33;0.55;;;6.20;1.00;;;;;;26142499;22;20018;-43
2023/03/04 03:49:53;;;;;;;1.65;0.60;;;6.20;1.00;;;;;;26146975;22;20010;-43
2023/03/04 03:59:55;;;;;;;2.90;0.68;;;6.20;1.00;;;;;;26106641;22;21471;-43
2023/03/04 04:09:56;;;;;;;1.65;0.68;;;6.20;1.00;;;;;;26158853;22;20011;-43
2023/03/04 04:19:57;;;;;;;1.52;0.75;;;6.20;1.00;;;;;;26156589;22;20325;-43
2023/03/04 04:29:58;;;;;;;1.27;0.30;;;6.20;1.00;;;;;;26121056;22;20090;-43
2023/03/04 04:39:59;;;;;;;3.03;0.85;;;6.20;1.00;;;;;;26138061;22;20010;-42
2023/03/04 04:50:01;;;;;;;3.38;0.50;;;6.20;1.00;;;;;;26160613;22;20021;-43
2023/03/04 05:00:05;;;;;;;1.83;0.50;;;6.20;1.00;;;;;;26155430;22;20006;-43
2023/03/04 05:10:08;;;;;;;1.17;0.50;;;6.10;1.00;;;;;;26158905;22;20015;-42
2023/03/04 05:20:10;;;;;;;1.35;0.30;;;6.10;1.00;;;;;;26113588;22;20364;-43
2023/03/04 05:30:11;;;;;;;2.35;0.63;;;6.10;1.00;;;;;;26164382;22;20019;-43
2023/03/04 05:40:12;;;;;;;1.73;0.40;;;6.00;1.00;;;;;;26153374;22;20474;-43
2023/03/04 05:50:14;;;;;;;0.95;0.20;;;6.00;1.00;;;;;;26154732;22;20039;-43
2023/03/04 06:00:16;;;;;;;21.25;1.55;;;5.90;1.00;;;;;;26146265;22;20014;-43
2023/03/04 06:10:17;;;;;;;9.00;1.13;;;5.90;1.00;;;;;;26156574;22;20010;-43
2023/03/04 06:20:18;;;;;;;2.55;0.65;;;5.70;3.00;;;;;;26147133;22;20435;-43
2023/03/04 06:30:19;;;;;;;1.33;0.57;;;5.70;7.20;;;;;;26143039;22;20014;-43
2023/03/04 06:40:20;;;;;;;2.10;1.00;;;5.70;9.50;;;;;;26146493;22;20006;-43
2023/03/04 06:50:23;;;;;;;1.30;0.60;;;5.70;10.70;;;;;;26155707;22;20011;-43
2023/03/04 07:00:24;;;;;;;5.57;1.20;;;5.70;11.80;;;;;;26132124;22;20010;-43
2023/03/04 07:10:25;;;;;;;3.35;0.55;;;5.80;12.60;;;;;;26148666;22;20478;-42
2023/03/04 07:20:26;;;;;;;2.75;0.50;;;5.90;13.20;;;;;;26143879;22;20058;-43
2023/03/04 07:30:27;;;;;;;1.48;0.50;;;5.80;15.00;;;;;;26149533;22;20073;-42
2023/03/04 07:40:28;;;;;;;2.03;0.63;;;5.90;19.50;;;;;;26161228;22;20014;-43
2023/03/04 07:50:29;;;;;;;2.00;0.77;;;6.00;21.50;;;;;;26145065;22;20096;-42
2023/03/04 08:00:30;;;;;;;4.28;1.00;;;6.10;19.90;;;;;;26160399;22;20091;-43
2023/03/04 08:10:31;;;;;;;1.50;0.40;;;6.30;18.50;;;;;;26155083;22;20017;-43
2023/03/04 08:20:32;;;;;;;0.47;0.20;;;6.50;17.60;;;;;;26161236;22;20018;-43
2023/03/04 08:30:33;;;;;;;0.57;0.10;;;6.60;11.20;;;;;;26156478;22;20106;-42
2023/03/04 08:40:34;;;;;;;1.17;0.20;;;6.80;11.20;;;;;;26148075;22;20230;-43
2023/03/04 08:50:35;;;;;;;4.70;1.05;;;7.10;7.30;;;;;;26109118;22;20025;-42
2023/03/04 09:00:42;;;;;;;0.30;0.15;;;7.30;7.10;;;;;;26154876;22;20017;-43
2023/03/04 09:10:45;;;;;;;0.50;0.10;;;7.40;7.70;;;;;;26145185;22;20011;-42
2023/03/04 09:20:46;;;;;;;1.23;0.57;;;7.60;10.50;;;;;;26139594;22;20049;-43
2023/03/04 09:30:47;;;;;;;0.60;0.00;;;7.70;15.80;;;;;;26151362;22;20298;-42
2023/03/04 09:40:48;;;;;;;0.57;0.30;;;7.80;20.20;;;;;;26144408;22;20017;-43
2023/03/04 09:51:30;;;;;;;0.85;0.30;;;7.80;20.30;;;;;;26129210;22;20015;-42
2023/03/04 10:01:41;;;;;;;1.00;0.40;;;7.80;21.20;;;;;;26024313;22;20011;-42
2023/03/04 10:11:49;;;;;;;2.15;0.43;;;7.80;23.70;;;;;;26123099;22;20021;-42
2023/03/04 10:21:51;;;;;;;1.45;0.43;;;8.20;19.60;;;;;;26132702;22;20023;-43
2023/03/04 10:31:54;;;;;;;3.53;1.08;;;8.50;11.00;;;;;;26143675;22;20025;-43
2023/03/04 10:42:06;;;;;;;2.47;0.35;;;8.70;4.90;;;;;;26156821;22;20084;-42
2023/03/04 10:52:25;;;;;;;1.80;0.85;;;8.70;1.00;;;;;;26160220;22;20022;-43
2023/03/04 11:02:30;;;;;;;1.75;0.55;;;8.40;2.60;;;;;;26165558;22;20456;-43
2023/03/04 11:12:33;;;;;;;1.02;0.30;;;8.70;8.50;;;;;;26155363;22;20019;-42
2023/03/04 11:22:34;;;;;;;1.08;0.32;;;9.40;2.80;;;;;;26157294;22;20027;-42
2023/03/04 11:32:42;;;;;;;0.40;0.15;;;9.10;1.00;;;;;;26148307;22;20019;-42
2023/03/04 11:42:58;;;;;;;1.02;0.47;;;8.50;2.50;;;;;;26143846;22;20021;-43
2023/03/04 11:53:22;;;;;;;0.70;0.38;;;7.90;12.80;;;;;;26164073;22;20093;-43
2023/03/04 12:04:20;;;;;;;1.08;0.50;;;8.00;55.30;;;;;;26159601;22;20019;-42
2023/03/04 12:14:49;;;;;;;0.30;0.10;;;8.60;90.50;;;;;;25785785;22;21629;-42
2023/03/04 12:25:14;;;;;;;2.47;0.75;;;7.90;40.70;;;;;;26171747;22;20013;-43
2023/03/04 12:35:35;;;;;;;3.60;0.75;;;7.70;80.70;;;;;;26143152;22;20484;-42
2023/03/04 12:45:39;;;;;;;2.42;0.70;;;7.40;49.50;;;;;;26114904;22;20017;-42
2023/03/04 12:55:44;;;;;;;6.88;2.50;;;7.10;49.20;;;;;;26158125;22;20011;-43
2023/03/04 13:06:02;;;;;;;2.90;1.40;;;7.10;51.40;;;;;;26149144;22;20015;-43
2023/03/04 13:16:25;;;;;;;3.00;1.27;;;8.60;39.30;;;;;;26143515;22;20110;-42
2023/03/04 13:26:33;;;;;;;5.00;1.05;;;8.40;8.40;;;;;;26149606;22;20017;-42
2023/03/04 13:36:53;;;;;;;5.38;1.15;;;7.90;6.50;;;;;;26147931;22;20021;-42
2023/03/04 13:46:56;;;;;;;3.38;1.63;;;7.60;10.20;;;;;;26144431;22;20018;-42
2023/03/04 13:57:00;;;;;;;5.15;0.80;;;7.70;6.20;;;;;;26141335;22;20036;-42
2023/03/04 14:07:16;;;;;;;1.73;0.77;;;7.70;1.00;;;;;;26145264;22;20014;-42
2023/03/04 14:17:36;;;;;;;4.88;1.17;;;7.70;1.00;;;;;;26142167;22;20503;-42
2023/03/04 14:27:37;;;;;;;3.17;1.10;;;7.80;1.00;;;;;;26143192;22;20452;-43
2023/03/04 14:37:54;;;;;;;2.75;1.10;;;7.90;1.00;;;;;;26143148;22;20014;-43
2023/03/04 14:48:04;;;;;;;0.87;0.43;;;7.90;1.00;;;;;;26142688;22;20007;-42
2023/03/04 14:58:17;;;;;;;1.13;0.38;;;8.00;1.00;;;;;;26138838;22;20443;-42
2023/03/04 15:08:26;;;;;;;1.50;0.30;;;7.70;1.00;;;;;;26140121;22;20150;-42
2023/03/04 15:18:29;;;;;;;2.53;0.43;;;7.40;1.00;;;;;;26150815;22;20525;-42
2023/03/04 15:28:34;;;;;;;2.88;0.93;;;7.20;2.00;;;;;;26133814;22;20007;-42
2023/03/04 15:38:35;;;;;;;2.97;0.75;;;7.20;1.00;;;;;;26141189;22;20547;-43
2023/03/04 15:48:36;;;;;;;1.25;0.43;;;7.20;1.00;;;;;;26156795;22;20010;-43
2023/03/04 15:58:38;;;;;;;2.50;0.70;;;7.20;1.00;;;;;;26144738;22;20345;-42
2023/03/04 16:08:40;;;;;;;0.80;0.20;;;7.20;1.00;;;;;;26149986;22;20011;-42
2023/03/04 16:18:42;;;;;;;1.02;0.40;;;7.40;1.00;;;;;;26155835;22;20023;-42
2023/03/04 16:28:43;;;;;;;2.50;0.80;;;7.30;1.00;;;;;;26151256;22;20007;-43
2023/03/04 16:38:44;;;;;;;2.45;0.28;;;7.30;1.00;;;;;;26155769;22;20019;-42
2023/03/04 16:48:46;;;;;;;0.90;0.70;;;7.10;1.00;;;;;;26154204;22;20037;-42
2023/03/04 16:58:48;;;;;;;2.47;0.90;;;7.20;1.00;;;;;;26156732;22;20026;-42
2023/03/04 17:08:49;;;;;;;4.13;1.30;;;7.00;1.00;;;;;;26174552;22;20010;-43
2023/03/04 17:18:50;;;;;;;3.38;1.13;;;7.10;1.00;;;;;;26165964;22;20023;-42
2023/03/04 17:28:51;;;;;;;3.10;1.45;;;7.00;1.00;;;;;;26166814;22;20017;-43
2023/03/04 17:38:52;;;;;;;2.95;1.58;;;7.00;1.00;;;;;;26132685;22;20019;-42
2023/03/04 17:48:55;;;;;;;2.42;0.55;;;6.90;1.00;;;;;;26142489;22;20230;-42
2023/03/04 17:58:59;;;;;;;1.38;0.75;;;6.80;1.00;;;;;;26110869;22;20463;-41
2023/03/04 18:09:00;;;;;;;1.52;0.65;;;6.70;1.00;;;;;;26152117;22;20014;-41
2023/03/04 18:19:01;;;;;;;3.45;1.35;;;6.70;1.00;;;;;;26146927;22;20029;-42
2023/03/04 18:29:02;;;;;;;4.97;1.30;;;6.60;1.00;;;;;;26150708;22;20015;-42
2023/03/04 18:39:06;;;;;;;3.70;1.45;;;6.60;1.00;;;;;;26131737;22;20024;-42
2023/03/04 18:49:09;;;;;;;2.17;0.77;;;6.50;1.00;;;;;;26109657;22;20330;-42
2023/03/04 18:59:18;;;;;;;11.95;7.88;;;6.60;1.00;;;;;;26095978;22;20592;-42
2023/03/04 19:09:20;;;;;;;3.15;2.28;;;6.60;1.00;;;;;;26107390;22;20528;-42
2023/03/04 19:19:21;;;;;;;3.22;0.80;;;6.40;1.00;;;;;;26054780;22;20022;-42
2023/03/04 19:29:22;;;;;;;2.30;0.77;;;6.40;1.00;;;;;;26081080;22;20374;-42
2023/03/04 19:39:23;;;;;;;2.95;1.23;;;6.30;1.00;;;;;;26106627;22;20019;-42
2023/03/04 19:49:24;;;;;;;3.47;0.82;;;6.20;1.00;;;;;;26106970;22;20011;-42
2023/03/04 19:59:25;;;;;;;6.15;1.70;;;6.10;1.00;;;;;;26111863;22;20050;-42
2023/03/04 20:09:26;;;;;;;1.88;0.30;;;6.00;1.00;;;;;;26100662;22;20021;-42
2023/03/04 20:19:29;;;;;;;3.00;1.00;;;5.90;1.00;;;;;;26119588;22;20546;-42
2023/03/04 20:29:30;;;;;;;1.83;0.70;;;5.80;1.00;;;;;;26111914;22;20026;-42
2023/03/04 20:39:31;;;;;;;2.42;0.93;;;5.80;1.00;;;;;;26098254;22;20015;-42
2023/03/04 20:49:32;;;;;;;3.33;1.98;;;5.70;1.00;;;;;;26121344;22;20218;-42
2023/03/04 20:59:34;;;;;;;3.67;1.52;;;5.50;1.00;;;;;;26090059;22;20003;-42
2023/03/04 21:09:35;;;;;;;4.60;1.85;;;5.60;1.00;;;;;;26098724;22;20007;-42
2023/03/04 21:19:42;;;;;;;4.05;1.92;;;5.50;1.00;;;;;;26107797;22;20337;-42
2023/03/04 21:29:43;;;;;;;4.68;1.73;;;5.50;1.00;;;;;;26060231;22;20475;-42
2023/03/04 21:39:44;;;;;;;5.55;2.13;;;5.50;1.00;;;;;;26106777;22;20448;-41
2023/03/04 21:49:46;;;;;;;2.53;1.02;;;5.30;1.00;;;;;;26115081;22;20022;-41
2023/03/04 21:59:47;;;;;;;3.63;1.70;;;5.10;1.80;;;;;;26095540;22;20011;-41
2023/03/04 22:09:48;;;;;;;7.53;2.90;;;4.90;2.50;;;;;;26112092;22;20372;-42
2023/03/04 22:19:49;;;;;;;5.38;1.92;;;4.90;4.10;;;;;;26111260;22;20027;-42
2023/03/04 22:29:50;;;;;;;1.77;0.85;;;4.70;5.40;;;;;;26104391;22;20018;-41
2023/03/04 22:39:51;;;;;;;4.35;2.28;;;4.50;7.10;;;;;;26106048;22;20369;-41
2023/03/04 22:49:53;;;;;;;11.68;3.13;;;4.40;8.90;;;;;;26143485;22;20073;-41
2023/03/04 22:59:56;;;;;;;10.88;3.03;;;4.40;11.60;;;;;;26152366;22;20030;-42
2023/03/04 23:09:57;;;;;;;4.40;1.50;;;4.40;14.70;;;;;;26154972;22;20226;-41
2023/03/04 23:19:58;;;;;;;5.82;2.63;;;4.50;23.80;;;;;;26148162;22;20524;-41
2023/03/04 23:29:59;;;;;;;3.38;1.63;;;4.60;28.00;;;;;;26152743;22;20014;-42
2023/03/04 23:40:01;;;;;;;8.98;2.75;;;4.70;31.70;;;;;;26155991;22;20348;-42
2023/03/04 23:50:02;;;;;;;3.83;1.40;;;4.60;34.60;;;;;;26142430;22;20010;-42
